createdAt,value
2019-04-20T00:01:22.791Z,8.07
2019-04-20T00:03:47.380Z,7.80
2019-04-20T00:06:17.319Z,8.43
2019-04-20T00:08:47.517Z,8.90
2019-04-20T00:11:21.863Z,7.73
2019-04-20T00:13:54.881Z,7.87
2019-04-20T00:16:16.828Z,7.80
2019-04-20T00:18:48.886Z,7.77
2019-04-20T00:21:34.521Z,7.57
2019-04-20T00:24:16.500Z,8.17
2019-04-20T00:27:15.888Z,8.10
2019-04-20T00:29:32.130Z,7.87
2019-04-20T00:31:52.276Z,7.93
2019-04-20T00:34:21.320Z,7.90
2019-04-20T00:36:43.191Z,8.77
2019-04-20T00:39:12.957Z,7.87
2019-04-20T00:41:47.991Z,8.23
2019-04-20T00:44:17.368Z,8.93
2019-04-20T00:46:51.124Z,9.10
2019-04-20T00:49:27.580Z,8.30
2019-04-20T00:52:07.647Z,8.20
2019-04-20T00:54:11.513Z,8.57
2019-04-20T00:56:39.402Z,8.43
2019-04-20T00:59:21.920Z,8.77
2019-04-20T01:01:59.853Z,8.67
2019-04-20T01:04:25.418Z,8.10
2019-04-20T01:07:11.008Z,8.27
2019-04-20T01:09:45.452Z,9.00
2019-04-20T01:12:20.406Z,9.10
2019-04-20T01:14:48.697Z,8.00
2019-04-20T01:17:12.258Z,8.50
2019-04-20T01:19:41.158Z,8.13
2019-04-20T01:22:13.614Z,8.03
2019-04-20T01:24:43.234Z,8.33
2019-04-20T01:27:16.782Z,8.43
2019-04-20T01:29:41.158Z,8.88
2019-04-20T01:32:15.609Z,9.73
2019-04-20T01:34:47.461Z,8.85
2019-04-20T01:37:23.149Z,9.13
2019-04-20T01:39:39.941Z,8.60
2019-04-20T01:42:04.593Z,8.55
2019-04-20T01:44:38.787Z,9.00
2019-04-20T01:47:04.866Z,9.75
2019-04-20T01:49:33.919Z,9.50
2019-04-20T01:52:10.533Z,8.80
2019-04-20T01:54:52.562Z,9.73
2019-04-20T01:57:29.899Z,9.83
2019-04-20T02:00:09.253Z,8.45
2019-04-20T02:02:45.007Z,10.00
2019-04-20T02:05:18.575Z,9.53
2019-04-20T02:07:47.587Z,9.48
2019-04-20T02:10:16.608Z,9.23
2019-04-20T02:12:51.759Z,9.80
2019-04-20T02:15:23.088Z,10.53
2019-04-20T02:17:59.583Z,11.85
2019-04-20T02:20:41.789Z,10.03
2019-04-20T02:23:06.543Z,10.95
2019-04-20T02:25:18.632Z,12.15
2019-04-20T02:27:54.935Z,11.18
2019-04-20T02:30:58.002Z,10.38
2019-04-20T02:36:27.485Z,9.60
2019-04-20T02:39:40.681Z,9.75
2019-04-20T02:41:51.419Z,9.78
2019-04-20T02:44:24.150Z,10.43
2019-04-20T02:46:51.029Z,9.63
2019-04-20T02:49:29.258Z,9.45
2019-04-20T02:51:47.609Z,9.73
2019-04-20T02:54:15.045Z,9.63
2019-04-20T02:56:48.408Z,9.50
2019-04-20T02:59:45.017Z,9.08
2019-04-20T03:01:43.452Z,9.70
2019-04-20T03:03:54.607Z,9.88
2019-04-20T03:06:33.038Z,9.68
2019-04-20T03:09:18.274Z,9.65
2019-04-20T03:11:49.934Z,9.83
2019-04-20T03:14:10.913Z,8.65
2019-04-20T03:16:38.532Z,9.95
2019-04-20T03:19:09.390Z,9.68
2019-04-20T03:21:43.452Z,8.95
2019-04-20T03:24:19.072Z,10.05
2019-04-20T03:26:40.778Z,10.60
2019-04-20T03:29:40.896Z,10.63
2019-04-20T03:35:12.112Z,9.43
2019-04-20T03:37:39.036Z,10.55
2019-04-20T03:39:57.988Z,9.43
2019-04-20T03:42:13.870Z,9.60
2019-04-20T03:44:50.430Z,9.38
2019-04-20T03:47:22.716Z,9.20
2019-04-20T03:50:07.898Z,9.53
2019-04-20T03:52:57.835Z,10.15
2019-04-20T03:55:52.633Z,9.95
2019-04-20T03:58:48.899Z,10.48
2019-04-20T04:01:58.675Z,9.60
2019-04-20T04:04:21.486Z,9.20
2019-04-20T04:06:41.633Z,10.00
2019-04-20T04:09:14.682Z,10.18
2019-04-20T04:11:43.472Z,10.13
2019-04-20T04:14:00.759Z,10.20
2019-04-20T04:16:39.657Z,10.23
2019-04-20T04:19:04.546Z,10.32
2019-04-20T04:21:44.684Z,10.40
2019-04-20T04:24:14.299Z,9.28
2019-04-20T04:26:42.834Z,9.88
2019-04-20T04:29:28.763Z,10.90
2019-04-20T04:31:57.727Z,10.80
2019-04-20T04:34:17.318Z,10.95
2019-04-20T04:36:52.397Z,9.60
2019-04-20T04:39:22.620Z,10.48
2019-04-20T04:41:58.378Z,10.45
2019-04-20T04:44:11.142Z,10.58
2019-04-20T04:46:26.906Z,11.55
2019-04-20T04:49:03.908Z,11.28
2019-04-20T04:51:29.783Z,10.98
2019-04-20T04:54:02.960Z,10.20
2019-04-20T04:56:25.170Z,11.05
2019-04-20T04:58:53.807Z,11.25
2019-04-20T05:01:25.789Z,11.18
2019-04-20T05:04:17.481Z,11.65
2019-04-20T05:06:33.194Z,11.70
2019-04-20T05:08:54.837Z,11.40
2019-04-20T05:11:19.594Z,11.00
2019-04-20T05:13:56.862Z,10.60
2019-04-20T05:16:43.169Z,11.15
2019-04-20T05:19:13.293Z,10.15
2019-04-20T05:22:11.198Z,10.18
2019-04-20T05:24:57.993Z,10.05
2019-04-20T05:27:50.854Z,11.12
2019-04-20T05:30:01.600Z,10.95
2019-04-20T05:32:39.619Z,10.95
2019-04-20T05:35:23.689Z,11.48
2019-04-20T05:38:08.103Z,10.48
2019-04-20T05:40:22.639Z,10.88
2019-04-20T05:42:54.181Z,11.22
2019-04-20T05:45:22.281Z,10.60
2019-04-20T05:47:48.434Z,12.65
2019-04-20T05:50:17.365Z,14.78
2019-04-20T05:52:56.270Z,12.07
2019-04-20T05:55:23.744Z,11.48
2019-04-20T05:57:52.445Z,10.60
2019-04-20T06:00:19.160Z,11.50
2019-04-20T06:02:52.790Z,10.30
2019-04-20T06:05:25.542Z,10.78
2019-04-20T06:07:52.174Z,10.48
2019-04-20T06:10:27.632Z,10.98
2019-04-20T06:12:52.959Z,11.03
2019-04-20T06:15:42.099Z,10.45
2019-04-20T06:18:19.013Z,10.82
2019-04-20T06:20:50.189Z,10.30
2019-04-20T06:26:35.151Z,9.87
2019-04-20T06:28:46.546Z,10.72
2019-04-20T06:31:26.606Z,11.10
2019-04-20T06:36:49.909Z,11.07
2019-04-20T06:42:06.562Z,10.23
2019-04-20T06:44:32.232Z,11.53
2019-04-20T06:47:13.573Z,10.80
2019-04-20T06:49:31.475Z,10.47
2019-04-20T06:52:12.974Z,10.80
2019-04-20T06:54:38.060Z,9.60
2019-04-20T06:57:07.232Z,10.83
2019-04-20T06:59:56.174Z,11.30
2019-04-20T07:02:17.289Z,10.90
2019-04-20T07:07:14.342Z,10.33
2019-04-20T07:12:08.029Z,10.50
2019-04-20T07:14:34.482Z,10.40
2019-04-20T07:17:27.052Z,10.80
2019-04-20T07:20:04.315Z,10.43
2019-04-20T07:22:46.162Z,10.60
2019-04-20T07:25:14.389Z,10.80
2019-04-20T07:27:40.287Z,9.73
2019-04-20T07:30:13.734Z,9.87
2019-04-20T07:32:48.178Z,10.30
2019-04-20T07:35:08.745Z,10.90
2019-04-20T07:40:10.414Z,9.10
2019-04-20T07:42:40.999Z,10.57
2019-04-20T07:45:14.867Z,9.53
2019-04-20T07:50:09.099Z,9.40
2019-04-20T07:52:33.902Z,10.00
2019-04-20T07:55:28.047Z,10.30
2019-04-20T07:57:39.400Z,9.73
2019-04-20T08:00:08.416Z,9.17
2019-04-20T08:03:03.366Z,9.50
2019-04-20T08:05:31.013Z,9.50
2019-04-20T08:07:57.599Z,10.20
2019-04-20T08:10:34.263Z,9.90
2019-04-20T08:13:09.415Z,10.30
2019-04-20T08:18:06.436Z,9.60
2019-04-20T08:20:43.685Z,10.50
2019-04-20T08:23:09.279Z,9.30
2019-04-20T08:25:31.577Z,10.43
2019-04-20T08:28:23.250Z,10.10
2019-04-20T08:31:21.769Z,10.23
2019-04-20T08:34:07.587Z,10.13
2019-04-20T08:36:29.969Z,10.50
2019-04-20T08:39:16.565Z,12.00
2019-04-20T08:41:20.663Z,12.87
2019-04-20T08:43:58.917Z,11.27
2019-04-20T08:46:26.807Z,10.20
2019-04-20T08:48:56.782Z,9.17
2019-04-20T08:51:25.942Z,9.90
2019-04-20T08:53:51.767Z,9.50
2019-04-20T08:56:22.038Z,9.70
2019-04-20T08:58:41.430Z,9.97
2019-04-20T09:01:14.081Z,10.40
2019-04-20T09:03:53.181Z,11.13
2019-04-20T09:06:25.180Z,10.80
2019-04-20T09:08:49.190Z,11.37
2019-04-20T09:11:21.902Z,11.30
2019-04-20T09:13:43.083Z,10.03
2019-04-20T09:16:08.725Z,12.17
2019-04-20T09:18:47.639Z,11.50
2019-04-20T09:21:23.403Z,10.37
2019-04-20T09:23:58.954Z,10.90
2019-04-20T09:26:32.782Z,10.53
2019-04-20T09:29:12.729Z,10.30
2019-04-20T09:31:39.315Z,9.60
2019-04-20T09:34:27.771Z,10.93
2019-04-20T09:37:04.543Z,11.23
2019-04-20T09:39:39.528Z,13.00
2019-04-20T09:42:33.394Z,11.23
2019-04-20T09:45:04.502Z,12.10
2019-04-20T09:47:36.813Z,11.00
2019-04-20T09:50:20.939Z,10.40
2019-04-20T09:52:49.096Z,10.23
2019-04-20T09:55:19.457Z,10.13
2019-04-20T09:57:50.134Z,9.30
2019-04-20T10:00:15.280Z,9.73
2019-04-20T10:02:34.463Z,9.80
2019-04-20T10:05:05.325Z,10.17
2019-04-20T10:07:35.606Z,9.47
2019-04-20T10:10:15.967Z,10.10
2019-04-20T10:12:33.466Z,11.37
2019-04-20T10:15:10.367Z,10.63
2019-04-20T10:17:33.420Z,9.90
2019-04-20T10:20:04.574Z,10.63
2019-04-20T10:22:30.856Z,9.73
2019-04-20T10:24:58.477Z,9.80
2019-04-20T10:27:26.502Z,9.83
2019-04-20T10:29:53.741Z,10.13
2019-04-20T10:32:25.211Z,10.17
2019-04-20T10:34:50.745Z,9.90
2019-04-20T10:37:24.180Z,9.23
2019-04-20T10:39:52.430Z,9.00
2019-04-20T10:42:26.075Z,9.67
2019-04-20T10:44:56.840Z,11.03
2019-04-20T10:47:25.300Z,10.87
2019-04-20T10:49:55.335Z,10.60
2019-04-20T10:52:24.044Z,9.67
2019-04-20T10:54:52.335Z,10.43
2019-04-20T10:57:21.618Z,12.47
2019-04-20T10:59:49.901Z,11.33
2019-04-20T11:02:21.897Z,10.37
2019-04-20T11:04:50.972Z,9.60
2019-04-20T11:07:22.634Z,9.30
2019-04-20T11:10:03.083Z,9.40
2019-04-20T11:12:22.148Z,8.90
2019-04-20T11:14:50.589Z,9.23
2019-04-20T11:17:24.603Z,9.20
2019-04-20T11:19:52.953Z,9.60
2019-04-20T11:22:22.238Z,10.20
2019-04-20T11:24:50.455Z,9.93
2019-04-20T11:27:18.722Z,9.30
2019-04-20T11:29:49.811Z,9.30
2019-04-20T11:32:18.004Z,9.57
2019-04-20T11:34:45.523Z,10.17
2019-04-20T11:37:15.139Z,10.10
2019-04-20T11:39:43.148Z,8.73
2019-04-20T11:42:11.860Z,8.90
2019-04-20T11:44:40.197Z,9.40
2019-04-20T11:47:08.472Z,9.13
2019-04-20T11:49:37.527Z,8.50
2019-04-20T11:52:05.852Z,8.03
2019-04-20T11:54:35.095Z,8.90
2019-04-20T11:57:03.695Z,9.20
2019-04-20T11:59:32.740Z,10.07
2019-04-20T12:02:25.377Z,9.53
2019-04-20T12:05:09.048Z,9.37
2019-04-20T12:07:22.633Z,9.63
2019-04-20T12:09:58.514Z,9.10
2019-04-20T12:12:36.293Z,8.27
2019-04-20T12:14:54.894Z,7.93
2019-04-20T12:17:23.745Z,8.33
2019-04-20T12:19:53.123Z,7.80
2019-04-20T12:22:21.541Z,7.83
2019-04-20T12:24:50.033Z,7.23
2019-04-20T12:27:18.659Z,6.27
2019-04-20T12:29:47.887Z,7.37
2019-04-20T12:32:16.706Z,7.67
2019-04-20T12:34:45.446Z,7.43
2019-04-20T12:37:15.377Z,6.93
2019-04-20T12:39:44.874Z,7.10
2019-04-20T12:42:13.008Z,6.90
2019-04-20T12:44:41.843Z,7.60
2019-04-20T12:47:10.322Z,6.30
2019-04-20T12:49:38.896Z,7.23
2019-04-20T12:52:08.425Z,7.17
2019-04-20T12:54:36.884Z,6.63
2019-04-20T12:57:10.794Z,7.13
2019-04-20T12:59:54.144Z,6.20
2019-04-20T13:02:23.058Z,12.00
2019-04-20T13:04:51.149Z,12.27
2019-04-20T13:07:22.775Z,7.00
2019-04-20T13:09:52.669Z,6.17
2019-04-20T13:12:50.323Z,6.23
2019-04-20T13:16:00.740Z,7.00
2019-04-20T13:18:43.905Z,6.80
2019-04-20T13:21:13.418Z,5.73
2019-04-20T13:23:49.023Z,8.00
2019-04-20T13:26:17.459Z,7.67
2019-04-20T13:28:46.451Z,6.50
2019-04-20T13:31:15.701Z,6.20
2019-04-20T13:33:49.354Z,6.47
2019-04-20T13:36:17.495Z,6.50
2019-04-20T13:38:45.888Z,6.70
2019-04-20T13:41:13.783Z,6.10
2019-04-20T13:43:41.855Z,6.60
2019-04-20T13:46:16.336Z,6.70
2019-04-20T13:48:44.749Z,6.37
2019-04-20T13:51:12.707Z,7.17
2019-04-20T13:53:41.048Z,6.53
2019-04-20T13:56:09.967Z,7.47
2019-04-20T13:58:56.230Z,6.60
2019-04-20T14:01:35.374Z,7.10
2019-04-20T14:04:10.762Z,7.20
2019-04-20T14:06:39.493Z,7.80
2019-04-20T14:09:07.582Z,6.60
2019-04-20T14:11:35.991Z,6.67
2019-04-20T14:14:06.254Z,7.43
2019-04-20T14:16:34.822Z,6.30
2019-04-20T14:19:02.984Z,6.63
2019-04-20T14:21:30.282Z,6.90
2019-04-20T14:23:59.055Z,7.03
2019-04-20T14:26:30.673Z,6.77
2019-04-20T14:28:58.876Z,6.70
2019-04-20T14:31:26.165Z,6.20
2019-04-20T14:33:53.098Z,7.10
2019-04-20T14:36:21.097Z,6.97
2019-04-20T14:38:49.793Z,6.90
2019-04-20T14:41:18.145Z,6.50
2019-04-20T14:43:46.943Z,7.47
2019-04-20T14:46:14.661Z,7.10
2019-04-20T14:48:42.691Z,6.60
2019-04-20T14:51:09.967Z,6.97
2019-04-20T14:53:37.764Z,6.50
2019-04-20T14:56:05.385Z,6.40
2019-04-20T14:58:45.669Z,6.90
2019-04-20T15:01:24.898Z,6.63
2019-04-20T15:04:00.238Z,6.50
2019-04-20T15:06:23.747Z,7.27
2019-04-20T15:08:52.577Z,7.60
2019-04-20T15:11:20.947Z,7.73
2019-04-20T15:13:50.865Z,7.07
2019-04-20T15:16:18.174Z,6.53
2019-04-20T15:19:05.408Z,7.73
2019-04-20T15:21:33.534Z,6.53
2019-04-20T15:24:01.699Z,7.60
2019-04-20T15:26:28.959Z,7.23
2019-04-20T15:28:56.612Z,7.47
2019-04-20T15:31:25.913Z,8.00
2019-04-20T15:33:53.262Z,8.57
2019-04-20T15:36:20.459Z,6.80
2019-04-20T15:38:47.611Z,7.60
2019-04-20T15:41:16.715Z,8.30
2019-04-20T15:43:45.698Z,7.57
2019-04-20T15:46:13.219Z,7.77
2019-04-20T15:48:41.730Z,7.63
2019-04-20T15:51:17.323Z,7.97
2019-04-20T15:53:44.812Z,7.30
2019-04-20T15:56:12.114Z,7.40
2019-04-20T15:58:40.585Z,7.20
2019-04-20T16:01:09.995Z,7.67
2019-04-20T16:03:47.656Z,7.53
2019-04-20T16:06:17.055Z,8.33
2019-04-20T16:08:48.287Z,8.47
2019-04-20T16:11:17.283Z,8.10
2019-04-20T16:13:53.408Z,7.53
2019-04-20T16:16:19.729Z,7.50
2019-04-20T16:18:48.567Z,7.83
2019-04-20T16:21:22.545Z,7.43
2019-04-20T16:24:08.714Z,8.20
2019-04-20T16:27:02.069Z,8.63
2019-04-20T16:29:29.425Z,7.47
2019-04-20T16:31:58.345Z,7.70
2019-04-20T16:34:33.727Z,8.20
2019-04-20T16:37:02.182Z,7.80
2019-04-20T16:39:30.347Z,7.13
2019-04-20T16:42:02.367Z,6.53
2019-04-20T16:44:31.371Z,7.77
2019-04-20T16:46:58.471Z,7.40
2019-04-20T16:49:25.519Z,8.33
2019-04-20T16:51:58.779Z,7.40
2019-04-20T16:54:26.067Z,8.27
2019-04-20T16:56:53.187Z,9.40
2019-04-20T16:59:28.144Z,10.30
2019-04-20T17:01:53.973Z,9.30
2019-04-20T17:04:24.001Z,8.50
2019-04-20T17:07:18.717Z,7.90
2019-04-20T17:09:47.372Z,8.17
2019-04-20T17:12:15.445Z,8.00
2019-04-20T17:14:43.337Z,8.83
2019-04-20T17:17:11.569Z,7.97
2019-04-20T17:19:43.961Z,8.33
2019-04-20T17:22:11.721Z,7.50
2019-04-20T17:24:40.476Z,9.50
2019-04-20T17:27:23.879Z,8.40
2019-04-20T17:30:10.427Z,8.37
2019-04-20T17:32:39.255Z,8.57
2019-04-20T17:35:18.041Z,8.10
2019-04-20T17:37:39.928Z,7.87
2019-04-20T17:40:27.052Z,8.47
2019-04-20T17:42:47.328Z,8.47
2019-04-20T17:45:10.400Z,7.90
2019-04-20T17:47:51.266Z,8.40
2019-04-20T17:50:20.203Z,8.63
2019-04-20T17:52:49.613Z,8.10
2019-04-20T17:55:17.600Z,7.87
2019-04-20T17:57:37.313Z,8.47
2019-04-20T18:00:16.857Z,8.00
2019-04-20T18:03:04.632Z,8.70
2019-04-20T18:05:39.296Z,7.83
2019-04-20T18:08:12.070Z,7.47
2019-04-20T18:10:35.352Z,7.47
2019-04-20T18:12:51.947Z,7.80
2019-04-20T18:15:36.953Z,8.00
2019-04-20T18:18:23.585Z,8.70
2019-04-20T18:20:58.978Z,7.43
2019-04-20T18:23:34.399Z,7.67
2019-04-20T18:26:22.672Z,7.63
2019-04-20T18:28:58.010Z,7.57
2019-04-20T18:31:21.814Z,8.00
2019-04-20T18:33:54.087Z,7.87
2019-04-20T18:36:30.252Z,8.90
2019-04-20T18:38:59.512Z,9.03
2019-04-20T18:41:35.428Z,8.63
2019-04-20T18:43:58.615Z,8.07
2019-04-20T18:46:49.885Z,9.10
2019-04-20T18:49:15.057Z,9.27
2019-04-20T18:51:26.095Z,9.83
2019-04-20T18:53:55.652Z,9.17
2019-04-20T18:56:32.291Z,9.10
2019-04-20T18:58:56.638Z,8.77
2019-04-20T19:01:31.003Z,10.17
2019-04-20T19:03:57.238Z,10.07
2019-04-20T19:06:26.068Z,8.90
2019-04-20T19:08:55.975Z,9.90
2019-04-20T19:11:25.754Z,10.50
2019-04-20T19:14:23.593Z,10.37
2019-04-20T19:17:02.041Z,10.83
2019-04-20T19:19:34.800Z,11.30
2019-04-20T19:21:56.205Z,12.63
2019-04-20T19:24:27.455Z,12.37
2019-04-20T19:26:58.308Z,12.10
2019-04-20T19:29:30.062Z,13.30
2019-04-20T19:32:14.328Z,14.73
2019-04-20T19:34:37.728Z,16.57
2019-04-20T19:37:03.909Z,17.03
2019-04-20T19:39:40.254Z,18.13
2019-04-20T19:42:08.628Z,18.90
2019-04-20T19:44:38.150Z,18.50
2019-04-20T19:47:17.828Z,18.80
2019-04-20T19:49:36.393Z,17.47
2019-04-20T19:52:25.197Z,17.00
2019-04-20T19:54:43.382Z,17.23
2019-04-20T19:57:05.107Z,18.00
2019-04-20T19:59:31.524Z,17.10
2019-04-20T20:01:53.853Z,17.80
2019-04-20T20:04:23.739Z,16.40
2019-04-20T20:06:57.910Z,17.53
2019-04-20T20:09:21.727Z,17.00
2019-04-20T20:11:50.089Z,16.13
2019-04-20T20:14:32.016Z,16.77
2019-04-20T20:17:14.192Z,14.83
2019-04-20T20:19:32.419Z,16.00
2019-04-20T20:22:04.565Z,16.07
2019-04-20T20:24:19.606Z,14.97
2019-04-20T20:26:56.315Z,14.83
2019-04-20T20:29:28.382Z,14.27
2019-04-20T20:32:05.188Z,13.90
2019-04-20T20:34:29.020Z,13.93
2019-04-20T20:36:54.590Z,13.70
2019-04-20T20:39:27.730Z,12.80
2019-04-20T20:42:04.963Z,13.97
2019-04-20T20:44:33.126Z,12.87
2019-04-20T20:46:59.283Z,11.97
2019-04-20T20:49:40.184Z,12.00
2019-04-20T20:52:12.039Z,11.03
2019-04-20T20:54:34.681Z,10.30
2019-04-20T20:57:01.428Z,11.00
2019-04-20T20:59:34.784Z,11.20
2019-04-20T21:02:05.810Z,10.23
2019-04-20T21:04:25.761Z,9.30
2019-04-20T21:06:55.019Z,9.57
2019-04-20T21:09:25.402Z,9.43
2019-04-20T21:12:00.599Z,10.17
2019-04-20T21:14:29.155Z,10.40
2019-04-20T21:17:03.035Z,10.37
2019-04-20T21:19:45.481Z,11.90
2019-04-20T21:22:04.807Z,10.70
2019-04-20T21:24:30.373Z,12.10
2019-04-20T21:27:00.661Z,11.20
2019-04-20T21:29:35.870Z,11.77
2019-04-20T21:32:05.085Z,12.30
2019-04-20T21:34:31.182Z,11.70
2019-04-20T21:37:07.299Z,12.17
2019-04-20T21:39:38.993Z,11.70
2019-04-20T21:42:09.687Z,12.07
2019-04-20T21:44:35.642Z,12.07
2019-04-20T21:47:02.985Z,12.83
2019-04-20T21:49:46.304Z,13.07
2019-04-20T21:52:06.526Z,13.43
2019-04-20T21:54:34.031Z,14.73
2019-04-20T21:57:05.537Z,13.97
2019-04-20T21:59:39.077Z,12.87
2019-04-20T22:02:10.366Z,14.67
2019-04-20T22:04:33.462Z,15.10
2019-04-20T22:07:02.540Z,16.00
2019-04-20T22:09:37.126Z,15.90
2019-04-20T22:12:00.293Z,16.60
2019-04-20T22:14:32.250Z,15.90
2019-04-20T22:17:01.839Z,16.87
2019-04-20T22:19:41.129Z,17.50
2019-04-20T22:22:07.657Z,17.43
2019-04-20T22:24:45.453Z,17.37
2019-04-20T22:27:06.322Z,15.97
2019-04-20T22:29:30.189Z,17.30
2019-04-20T22:32:03.966Z,16.83
2019-04-20T22:34:28.411Z,16.43
2019-04-20T22:36:58.042Z,14.83
2019-04-20T22:39:39.782Z,13.90
2019-04-20T22:42:07.414Z,13.83
2019-04-20T22:44:34.232Z,15.20
2019-04-20T22:47:05.506Z,14.10
2019-04-20T22:49:45.123Z,13.60
2019-04-20T22:52:18.490Z,14.33
2019-04-20T22:54:46.663Z,14.50
2019-04-20T22:57:11.805Z,12.63
2019-04-20T22:59:46.058Z,15.07
2019-04-20T23:02:01.103Z,14.50
2019-04-20T23:04:30.891Z,13.30
2019-04-20T23:06:59.127Z,14.00
2019-04-20T23:09:26.778Z,13.73
2019-04-20T23:12:03.849Z,14.30
2019-04-20T23:14:26.481Z,14.00
2019-04-20T23:16:57.338Z,13.13
2019-04-20T23:19:35.657Z,13.70
2019-04-20T23:21:59.598Z,14.83
2019-04-20T23:24:23.703Z,13.87
2019-04-20T23:26:55.436Z,14.60
2019-04-20T23:29:29.530Z,14.40
2019-04-20T23:31:59.427Z,15.07
2019-04-20T23:34:28.444Z,14.80
2019-04-20T23:36:54.798Z,14.67
2019-04-20T23:39:29.158Z,14.50
2019-04-20T23:41:58.566Z,13.80
2019-04-20T23:44:35.700Z,14.23
2019-04-20T23:47:14.676Z,15.00
2019-04-20T23:50:00.268Z,14.70
2019-04-20T23:52:35.650Z,15.80
2019-04-20T23:54:51.175Z,17.13
2019-04-20T23:57:15.600Z,15.63
2019-04-20T23:59:46.294Z,14.27
